Himki, Russia
Current Conditions -  °F | °C
As of 2:30 PM on Monday 20 Oct 2014 (Local Time) from UUEE Reporting Station
Light Rain Light Rain  
Wind Chill: 32°   Ceiling: 600
Heat Index: 36°   Visibility: 1.8mi
Dew Point: 34°   Wind: 4mph
Humidity: 93%   Direction: NA
Pressure: 29.35"   Gusts: NA
Location:  55.89°N, 37.44°E
Report Text: UUEE 201130Z VRB02MPS 3000 -RA BR OVC006 02/01 Q0994 7551024025510245 NOSIG
Loading
Personal Weather Stations






























Interactive Weather Map
Tropical Storm Tracking
New forecast layout! Learn more

10-Day Weather Forecast

Advertisements
Track Severe Weather on mobile